Sevierville, TN

12:05 PM EST on Febrièr 13, 2016 (GMT -0500)
KOA Campground Pigeon Forge | | Change Station
CLOSE
Current Station
Personal Weather Stations
Location: Pigeon Forge, TN
Elevation: 1037 ft
Nearby Weather Stations

Elev 1037 ft 35.79 °N, 83.55 °W | Updated 16 seconds ago

Clar
Clar
31.6 °F
Feels Like 25 °F
N
7.6
vent Variadís vent from NNO
Gusts 9.8 mph

Auèi
High -- | Low -- °F
--% Chance of Precip.
Yesterday
High -- | Low -- °F
Precip. -- Dins
Pression 30.47 Dins
Visibilitat 10.0 miles
Nivols Few 3000 ft
Vent freg 25 °F
Punt de ròs 7 °F
Imor 35%
Rainfall 0.00 Dins
Snow Depth Not available.
7:23 AM 6:13 PM
Waxing Crescent, 32% visible
METAR KTYS 131653Z 01006KT 10SM FEW030 M02/M12 A3045 RMK AO2 SLP318 T10221122
Pression 30.47 Dins
Visibilitat 10.0 miles
Nivols Few 3000 ft
Vent freg 25 °F
Punt de ròs 7 °F
Imor 35%
Rainfall 0.00 Dins
Snow Depth Not available.
7:23 AM 6:13 PM
Waxing Crescent, 32% visible
METAR KTYS 131653Z 01006KT 10SM FEW030 M02/M12 A3045 RMK AO2 SLP318 T10221122

10-Day Weather Forecast

Almanac

Astronomy

Feb. 13, 2016 Rise Set
Actual Time
Civil Twilight
Nautical Twilight
Astronomical Twilight
Luna
Length Of Visible Light
Length of Day
Tomorrow will be .
, % of the Moon is Illuminated

Today's Extremes

State Highs State Lows

Community

WunderPhotos

Upload Photos

1,892,611 photos uploaded!

WunderBlog® & News

Nearby

Air Quality

  Air Quality AQ Index Pollutant
Not available.

Snow Depth

Station Depth Elevation

Earthquake Activity

Vila Distance Mag. Time & Date
Minimum magnitude displayed is 2.5.

Coastal Water Temperatures

Luòc Temperatura

Stations

Nearby Weather Stations

Station Location Temp Vent freg Punt de ròs Imor vent Precip. Elev Mes al jorn Type
                   

Watches & Warnings

There are currently no watches in effect.